Main page
METAR-TAF:

METAR-TAF

Airports :

Cherif Al Idrissi Airport

Al Hoceima, Morocco

latitude: 35-11N, longitude: 003-51W, elevation: 27 m

Current weather observation

The report was made 37 minutes ago, at 01:00 UTC
Wind 4 kt from the West
Temperature 21°C
Humidity 94%
Pressure 1017 hPa
Visibility: 8000 m

METAR: GMTA 220100Z 28004KT 8000 NSC 21/20 Q1017 NOSIG

Time: 02:37 (01:37 UTC)

Forecast

The report was made 2 hours and 37 minutes ago, at 23:00 UTC
Forecast valid from 22 at 00 UTC to 23 at 06 UTC
Wind 2 kt from variable directions
Visibility 10 km or more
no clouds below 1500 m and no cumulonimbus
Becoming
from 22 at 00 UTC to 22 at 03 UTC
Scattered clouds at a height of 1300 ft
Probability 30%
from 22 at 00 UTC to 22 at 06 UTC
Visibility: 4000 m
Scattered clouds at a height of 800 ft
mist
Becoming
from 22 at 06 UTC to 22 at 08 UTC
Wind 12 kt from the North/Northeast

TAF: GMTA 212300Z 2200/2306 VRB02KT CAVOK BECMG 2200/2203 SCT013 PROB30 2200/2206 4000 BR SCT008 BECMG 2206/2208 02012KT

Weather observations and forecasts of more than 4000 airports (METAR and TAF reports).

The available stations are represented by yellow and red dots on the map.

Hover mouse over dot to see the name of the station.

Then click to see weather observations and forecasts.

To change the map : click on the green buttons with a black cross to zoom in, on the green button with a dash to zoom out, or on the green arrows for adjacent maps.


METAR-TAF: